sensor_id;sensor_type;location;lat;lon;timestamp;pressure;altitude;pressure_sealevel;temperature
65765;BMP180;52915;53.718;19.946;2022-08-19T00:02:22;100156.20;;;23.06
65765;BMP180;52915;53.718;19.946;2022-08-19T00:07:27;100158.40;;;23.10
65765;BMP180;52915;53.718;19.946;2022-08-19T00:12:32;100160.00;;;23.00
65765;BMP180;52915;53.718;19.946;2022-08-19T00:17:43;100151.20;;;22.90
65765;BMP180;52915;53.718;19.946;2022-08-19T00:22:48;100145.60;;;22.90
65765;BMP180;52915;53.718;19.946;2022-08-19T00:27:52;100141.40;;;23.00
65765;BMP180;52915;53.718;19.946;2022-08-19T00:32:58;100141.20;;;23.00
65765;BMP180;52915;53.718;19.946;2022-08-19T00:38:03;100144.80;;;22.90
65765;BMP180;52915;53.718;19.946;2022-08-19T00:43:11;100157.20;;;22.80
65765;BMP180;52915;53.718;19.946;2022-08-19T00:48:18;100157.20;;;22.60
65765;BMP180;52915;53.718;19.946;2022-08-19T00:53:29;100154.80;;;22.60
65765;BMP180;52915;53.718;19.946;2022-08-19T00:58:35;100152.40;;;22.70
65765;BMP180;52915;53.718;19.946;2022-08-19T01:03:39;100158.60;;;22.70
65765;BMP180;52915;53.718;19.946;2022-08-19T01:09:03;100159.00;;;22.70
65765;BMP180;52915;53.718;19.946;2022-08-19T01:14:08;100160.00;;;22.50
65765;BMP180;52915;53.718;19.946;2022-08-19T01:19:31;100158.60;;;22.40
65765;BMP180;52915;53.718;19.946;2022-08-19T01:24:46;100159.00;;;22.30
65765;BMP180;52915;53.718;19.946;2022-08-19T01:29:52;100164.20;;;22.30
65765;BMP180;52915;53.718;19.946;2022-08-19T01:34:56;100164.00;;;22.38
65765;BMP180;52915;53.718;19.946;2022-08-19T01:40:05;100161.60;;;22.30
65765;BMP180;52915;53.718;19.946;2022-08-19T01:45:11;100164.00;;;22.10
65765;BMP180;52915;53.718;19.946;2022-08-19T01:50:16;100154.60;;;22.00
65765;BMP180;52915;53.718;19.946;2022-08-19T01:55:23;100149.40;;;21.94
65765;BMP180;52915;53.718;19.946;2022-08-19T02:00:31;100154.00;;;22.00
65765;BMP180;52915;53.718;19.946;2022-08-19T02:05:36;100156.40;;;21.92
65765;BMP180;52915;53.718;19.946;2022-08-19T02:10:43;100151.40;;;21.90
65765;BMP180;52915;53.718;19.946;2022-08-19T02:15:47;100149.00;;;21.98
65765;BMP180;52915;53.718;19.946;2022-08-19T02:20:52;100150.20;;;21.90
65765;BMP180;52915;53.718;19.946;2022-08-19T02:25:56;100144.40;;;21.70
65765;BMP180;52915;53.718;19.946;2022-08-19T02:31:02;100145.60;;;21.70
65765;BMP180;52915;53.718;19.946;2022-08-19T02:36:08;100145.40;;;21.70
65765;BMP180;52915;53.718;19.946;2022-08-19T02:41:18;100144.80;;;21.80
65765;BMP180;52915;53.718;19.946;2022-08-19T02:46:27;100144.00;;;21.70
65765;BMP180;52915;53.718;19.946;2022-08-19T02:51:40;100144.80;;;21.60
65765;BMP180;52915;53.718;19.946;2022-08-19T02:56:44;100152.40;;;21.54
65765;BMP180;52915;53.718;19.946;2022-08-19T03:01:50;100152.60;;;21.60
65765;BMP180;52915;53.718;19.946;2022-08-19T03:06:55;100152.00;;;21.66
65765;BMP180;52915;53.718;19.946;2022-08-19T03:12:06;100150.20;;;21.60
65765;BMP180;52915;53.718;19.946;2022-08-19T03:17:10;100142.80;;;21.50
65765;BMP180;52915;53.718;19.946;2022-08-19T03:22:14;100132.80;;;21.40
65765;BMP180;52915;53.718;19.946;2022-08-19T03:27:19;100142.80;;;21.40
65765;BMP180;52915;53.718;19.946;2022-08-19T03:32:23;100144.60;;;21.40
65765;BMP180;52915;53.718;19.946;2022-08-19T03:37:44;100148.60;;;21.50
65765;BMP180;52915;53.718;19.946;2022-08-19T03:42:48;100152.40;;;21.60
65765;BMP180;52915;53.718;19.946;2022-08-19T03:47:53;100145.80;;;21.60
65765;BMP180;52915;53.718;19.946;2022-08-19T03:52:58;100140.20;;;21.50
65765;BMP180;52915;53.718;19.946;2022-08-19T03:58:04;100133.80;;;21.50
65765;BMP180;52915;53.718;19.946;2022-08-19T04:03:08;100139.00;;;21.60
65765;BMP180;52915;53.718;19.946;2022-08-19T04:08:14;100143.20;;;21.70
65765;BMP180;52915;53.718;19.946;2022-08-19T04:13:24;100143.80;;;21.60
65765;BMP180;52915;53.718;19.946;2022-08-19T04:18:33;100147.20;;;21.70
65765;BMP180;52915;53.718;19.946;2022-08-19T04:23:38;100155.60;;;21.96
65765;BMP180;52915;53.718;19.946;2022-08-19T04:28:49;100156.40;;;22.10
65765;BMP180;52915;53.718;19.946;2022-08-19T04:34:00;100163.60;;;22.14
65765;BMP180;52915;53.718;19.946;2022-08-19T04:39:12;100161.40;;;22.20
65765;BMP180;52915;53.718;19.946;2022-08-19T04:44:17;100155.60;;;22.40
65765;BMP180;52915;53.718;19.946;2022-08-19T04:49:23;100158.00;;;22.60
65765;BMP180;52915;53.718;19.946;2022-08-19T04:54:27;100153.80;;;22.72
65765;BMP180;52915;53.718;19.946;2022-08-19T04:59:41;100147.80;;;23.00
65765;BMP180;52915;53.718;19.946;2022-08-19T05:04:45;100146.40;;;23.20
65765;BMP180;52915;53.718;19.946;2022-08-19T05:09:49;100139.80;;;23.40
65765;BMP180;52915;53.718;19.946;2022-08-19T05:15:04;100144.00;;;23.60
65765;BMP180;52915;53.718;19.946;2022-08-19T05:20:10;100136.00;;;23.70
65765;BMP180;52915;53.718;19.946;2022-08-19T05:25:32;100123.80;;;23.92
65765;BMP180;52915;53.718;19.946;2022-08-19T05:30:37;100125.80;;;24.10
65765;BMP180;52915;53.718;19.946;2022-08-19T05:35:50;100122.00;;;24.34
65765;BMP180;52915;53.718;19.946;2022-08-19T05:40:54;100135.80;;;24.50
65765;BMP180;52915;53.718;19.946;2022-08-19T05:45:59;100138.00;;;24.70
65765;BMP180;52915;53.718;19.946;2022-08-19T05:51:05;100134.80;;;24.80
65765;BMP180;52915;53.718;19.946;2022-08-19T05:56:14;100139.20;;;24.98
65765;BMP180;52915;53.718;19.946;2022-08-19T06:01:20;100142.00;;;25.10
65765;BMP180;52915;53.718;19.946;2022-08-19T06:06:24;100139.60;;;25.36
65765;BMP180;52915;53.718;19.946;2022-08-19T06:11:41;100163.20;;;25.50
65765;BMP180;52915;53.718;19.946;2022-08-19T06:16:47;100175.60;;;25.50
65765;BMP180;52915;53.718;19.946;2022-08-19T06:21:52;100172.20;;;25.70
65765;BMP180;52915;53.718;19.946;2022-08-19T06:26:58;100168.20;;;26.08
65765;BMP180;52915;53.718;19.946;2022-08-19T06:32:04;100166.80;;;26.40
65765;BMP180;52915;53.718;19.946;2022-08-19T06:37:10;100166.00;;;26.70
65765;BMP180;52915;53.718;19.946;2022-08-19T06:42:15;100163.20;;;27.00
65765;BMP180;52915;53.718;19.946;2022-08-19T06:47:26;100170.80;;;27.24
65765;BMP180;52915;53.718;19.946;2022-08-19T06:52:35;100164.80;;;27.60
65765;BMP180;52915;53.718;19.946;2022-08-19T06:57:41;100164.00;;;27.90
65765;BMP180;52915;53.718;19.946;2022-08-19T07:02:46;100164.20;;;28.10
65765;BMP180;52915;53.718;19.946;2022-08-19T07:07:59;100155.00;;;28.30
65765;BMP180;52915;53.718;19.946;2022-08-19T07:13:07;100149.00;;;28.50
65765;BMP180;52915;53.718;19.946;2022-08-19T07:18:12;100149.40;;;28.78
65765;BMP180;52915;53.718;19.946;2022-08-19T07:23:16;100150.20;;;29.10
65765;BMP180;52915;53.718;19.946;2022-08-19T07:28:20;100144.20;;;29.50
65765;BMP180;52915;53.718;19.946;2022-08-19T07:33:29;100146.00;;;29.90
65765;BMP180;52915;53.718;19.946;2022-08-19T07:38:37;100150.40;;;30.10
65765;BMP180;52915;53.718;19.946;2022-08-19T07:43:42;100159.20;;;30.20
65765;BMP180;52915;53.718;19.946;2022-08-19T07:48:49;100155.20;;;30.26
65765;BMP180;52915;53.718;19.946;2022-08-19T07:53:55;100157.00;;;30.40
65765;BMP180;52915;53.718;19.946;2022-08-19T07:59:00;100150.80;;;30.50
65765;BMP180;52915;53.718;19.946;2022-08-19T08:04:04;100143.20;;;30.54
65765;BMP180;52915;53.718;19.946;2022-08-19T08:09:34;100142.40;;;30.76
65765;BMP180;52915;53.718;19.946;2022-08-19T08:14:47;100153.80;;;30.80
65765;BMP180;52915;53.718;19.946;2022-08-19T08:19:58;100160.00;;;31.02
65765;BMP180;52915;53.718;19.946;2022-08-19T08:25:11;100154.60;;;31.10
65765;BMP180;52915;53.718;19.946;2022-08-19T08:30:24;100155.00;;;31.20
65765;BMP180;52915;53.718;19.946;2022-08-19T08:35:35;100153.20;;;31.38
65765;BMP180;52915;53.718;19.946;2022-08-19T08:40:48;100147.00;;;31.60
65765;BMP180;52915;53.718;19.946;2022-08-19T08:46:01;100150.60;;;31.84
65765;BMP180;52915;53.718;19.946;2022-08-19T08:51:51;100142.60;;;32.20
65765;BMP180;52915;53.718;19.946;2022-08-19T08:56:53;100142.00;;;32.74
65765;BMP180;52915;53.718;19.946;2022-08-19T09:01:59;100144.00;;;32.80
65765;BMP180;52915;53.718;19.946;2022-08-19T09:18:03;100124.80;;;32.64
65765;BMP180;52915;53.718;19.946;2022-08-19T09:23:09;100129.80;;;32.90
65765;BMP180;52915;53.718;19.946;2022-08-19T09:28:14;100135.40;;;32.90
65765;BMP180;52915;53.718;19.946;2022-08-19T09:33:29;100133.20;;;33.10
65765;BMP180;52915;53.718;19.946;2022-08-19T09:38:39;100139.40;;;33.10
65765;BMP180;52915;53.718;19.946;2022-08-19T09:43:51;100143.40;;;33.20
65765;BMP180;52915;53.718;19.946;2022-08-19T09:49:00;100133.00;;;33.18
65765;BMP180;52915;53.718;19.946;2022-08-19T09:54:09;100136.20;;;33.30
65765;BMP180;52915;53.718;19.946;2022-08-19T09:59:14;100122.60;;;33.70
65765;BMP180;52915;53.718;19.946;2022-08-19T10:04:19;100115.40;;;34.12
65765;BMP180;52915;53.718;19.946;2022-08-19T10:09:27;100124.60;;;34.40
65765;BMP180;52915;53.718;19.946;2022-08-19T10:14:38;100118.60;;;34.44
65765;BMP180;52915;53.718;19.946;2022-08-19T10:19:42;100115.20;;;34.60
65765;BMP180;52915;53.718;19.946;2022-08-19T10:24:58;100125.60;;;34.50
65765;BMP180;52915;53.718;19.946;2022-08-19T10:30:04;100118.80;;;34.30
65765;BMP180;52915;53.718;19.946;2022-08-19T10:35:13;100115.00;;;34.50
65765;BMP180;52915;53.718;19.946;2022-08-19T10:40:26;100117.40;;;34.80
65765;BMP180;52915;53.718;19.946;2022-08-19T10:45:31;100112.20;;;34.90
65765;BMP180;52915;53.718;19.946;2022-08-19T10:50:36;100101.40;;;34.80
65765;BMP180;52915;53.718;19.946;2022-08-19T10:55:59;100102.60;;;34.70
65765;BMP180;52915;53.718;19.946;2022-08-19T11:01:22;100098.00;;;34.60
65765;BMP180;52915;53.718;19.946;2022-08-19T11:06:27;100089.00;;;34.50
65765;BMP180;52915;53.718;19.946;2022-08-19T11:11:32;100076.40;;;34.30
65765;BMP180;52915;53.718;19.946;2022-08-19T11:16:42;100067.60;;;34.38
65765;BMP180;52915;53.718;19.946;2022-08-19T11:21:48;100064.60;;;34.40
65765;BMP180;52915;53.718;19.946;2022-08-19T11:27:01;100056.80;;;34.40
65765;BMP180;52915;53.718;19.946;2022-08-19T11:32:09;100056.60;;;34.40
65765;BMP180;52915;53.718;19.946;2022-08-19T11:37:14;100048.00;;;34.50
65765;BMP180;52915;53.718;19.946;2022-08-19T11:42:19;100047.40;;;34.60
65765;BMP180;52915;53.718;19.946;2022-08-19T11:47:42;100053.00;;;34.70
65765;BMP180;52915;53.718;19.946;2022-08-19T11:52:47;100049.40;;;34.70
65765;BMP180;52915;53.718;19.946;2022-08-19T11:57:53;100041.80;;;34.70
65765;BMP180;52915;53.718;19.946;2022-08-19T12:02:58;100038.80;;;34.70
65765;BMP180;52915;53.718;19.946;2022-08-19T12:08:03;100023.80;;;34.60
65765;BMP180;52915;53.718;19.946;2022-08-19T12:13:07;100018.80;;;34.40
65765;BMP180;52915;53.718;19.946;2022-08-19T12:18:12;100016.60;;;34.30
65765;BMP180;52915;53.718;19.946;2022-08-19T12:23:18;100017.00;;;34.16
65765;BMP180;52915;53.718;19.946;2022-08-19T12:28:26;100010.40;;;34.00
65765;BMP180;52915;53.718;19.946;2022-08-19T12:33:34;100009.80;;;34.00
65765;BMP180;52915;53.718;19.946;2022-08-19T12:38:41;100015.60;;;34.20
65765;BMP180;52915;53.718;19.946;2022-08-19T12:43:48;100014.20;;;34.30
65765;BMP180;52915;53.718;19.946;2022-08-19T12:48:53;100010.80;;;34.24
65765;BMP180;52915;53.718;19.946;2022-08-19T12:53:58;99996.80;;;34.10
65765;BMP180;52915;53.718;19.946;2022-08-19T12:59:04;100000.20;;;34.40
65765;BMP180;52915;53.718;19.946;2022-08-19T13:04:09;99993.60;;;34.52
65765;BMP180;52915;53.718;19.946;2022-08-19T13:09:13;99985.40;;;34.98
65765;BMP180;52915;53.718;19.946;2022-08-19T13:14:18;99975.80;;;35.04
65765;BMP180;52915;53.718;19.946;2022-08-19T13:19:22;99991.80;;;35.00
65765;BMP180;52915;53.718;19.946;2022-08-19T13:24:28;99994.80;;;34.80
65765;BMP180;52915;53.718;19.946;2022-08-19T13:29:40;99986.60;;;34.50
65765;BMP180;52915;53.718;19.946;2022-08-19T13:35:06;99978.00;;;34.44
65765;BMP180;52915;53.718;19.946;2022-08-19T13:40:23;99970.20;;;34.30
65765;BMP180;52915;53.718;19.946;2022-08-19T13:45:33;99956.60;;;34.30
65765;BMP180;52915;53.718;19.946;2022-08-19T13:50:45;99966.20;;;34.50
65765;BMP180;52915;53.718;19.946;2022-08-19T13:55:54;99964.20;;;34.52
65765;BMP180;52915;53.718;19.946;2022-08-19T14:00:59;99967.80;;;34.30
65765;BMP180;52915;53.718;19.946;2022-08-19T14:06:05;99978.80;;;34.00
65765;BMP180;52915;53.718;19.946;2022-08-19T14:11:09;99985.20;;;33.80
65765;BMP180;52915;53.718;19.946;2022-08-19T14:16:14;99987.40;;;33.70
65765;BMP180;52915;53.718;19.946;2022-08-19T14:21:22;99977.20;;;33.80
65765;BMP180;52915;53.718;19.946;2022-08-19T14:26:28;99972.20;;;33.80
65765;BMP180;52915;53.718;19.946;2022-08-19T14:31:35;99968.60;;;33.70
65765;BMP180;52915;53.718;19.946;2022-08-19T14:36:40;99974.80;;;33.60
65765;BMP180;52915;53.718;19.946;2022-08-19T14:41:46;99976.00;;;33.60
65765;BMP180;52915;53.718;19.946;2022-08-19T14:46:50;99969.80;;;33.50
65765;BMP180;52915;53.718;19.946;2022-08-19T14:51:56;99966.20;;;33.54
65765;BMP180;52915;53.718;19.946;2022-08-19T14:57:02;99960.40;;;33.80
65765;BMP180;52915;53.718;19.946;2022-08-19T15:02:06;99958.40;;;34.10
65765;BMP180;52915;53.718;19.946;2022-08-19T15:07:30;99956.40;;;35.44
65765;BMP180;52915;53.718;19.946;2022-08-19T15:12:41;99953.80;;;36.80
65765;BMP180;52915;53.718;19.946;2022-08-19T15:17:51;99957.00;;;37.12
65765;BMP180;52915;53.718;19.946;2022-08-19T15:22:56;99953.20;;;37.80
65765;BMP180;52915;53.718;19.946;2022-08-19T15:28:03;99962.00;;;38.20
65765;BMP180;52915;53.718;19.946;2022-08-19T15:33:07;99960.20;;;38.20
65765;BMP180;52915;53.718;19.946;2022-08-19T15:38:12;99966.20;;;38.60
65765;BMP180;52915;53.718;19.946;2022-08-19T15:43:19;99968.40;;;38.30
65765;BMP180;52915;53.718;19.946;2022-08-19T15:48:26;99965.60;;;37.70
65765;BMP180;52915;53.718;19.946;2022-08-19T15:54:06;99964.20;;;36.78
65765;BMP180;52915;53.718;19.946;2022-08-19T15:59:11;99965.00;;;37.00
65765;BMP180;52915;53.718;19.946;2022-08-19T16:04:34;99966.20;;;37.20
65765;BMP180;52915;53.718;19.946;2022-08-19T16:09:57;99967.80;;;37.40
65765;BMP180;52915;53.718;19.946;2022-08-19T16:15:26;99967.40;;;37.10
65765;BMP180;52915;53.718;19.946;2022-08-19T16:20:31;99969.20;;;36.90
65765;BMP180;52915;53.718;19.946;2022-08-19T16:25:38;99978.40;;;35.72
65765;BMP180;52915;53.718;19.946;2022-08-19T16:30:42;99965.40;;;35.20
65765;BMP180;52915;53.718;19.946;2022-08-19T16:35:57;99967.40;;;35.30
65765;BMP180;52915;53.718;19.946;2022-08-19T16:41:09;99963.20;;;35.10
65765;BMP180;52915;53.718;19.946;2022-08-19T16:46:19;99968.60;;;34.90
65765;BMP180;52915;53.718;19.946;2022-08-19T16:51:24;99966.60;;;34.60
65765;BMP180;52915;53.718;19.946;2022-08-19T16:56:29;99978.80;;;34.18
65765;BMP180;52915;53.718;19.946;2022-08-19T17:01:34;99976.80;;;33.60
65765;BMP180;52915;53.718;19.946;2022-08-19T17:06:38;99986.60;;;33.16
65765;BMP180;52915;53.718;19.946;2022-08-19T17:11:43;99993.80;;;32.70
65765;BMP180;52915;53.718;19.946;2022-08-19T17:16:53;100002.40;;;32.10
65765;BMP180;52915;53.718;19.946;2022-08-19T17:21:57;100007.40;;;31.70
65765;BMP180;52915;53.718;19.946;2022-08-19T17:27:01;100009.60;;;31.32
65765;BMP180;52915;53.718;19.946;2022-08-19T17:32:11;100012.20;;;31.08
65765;BMP180;52915;53.718;19.946;2022-08-19T17:37:16;100017.40;;;30.82
65765;BMP180;52915;53.718;19.946;2022-08-19T17:42:21;100016.80;;;30.60
65765;BMP180;52915;53.718;19.946;2022-08-19T17:47:27;100020.80;;;30.40
65765;BMP180;52915;53.718;19.946;2022-08-19T17:52:32;100012.40;;;30.20
65765;BMP180;52915;53.718;19.946;2022-08-19T17:57:38;100016.40;;;30.00
65765;BMP180;52915;53.718;19.946;2022-08-19T18:02:56;100022.00;;;29.80
65765;BMP180;52915;53.718;19.946;2022-08-19T18:08:04;100029.40;;;29.70
65765;BMP180;52915;53.718;19.946;2022-08-19T18:13:14;100030.00;;;29.50
65765;BMP180;52915;53.718;19.946;2022-08-19T18:18:20;100038.20;;;29.32
65765;BMP180;52915;53.718;19.946;2022-08-19T18:23:24;100046.80;;;29.20
65765;BMP180;52915;53.718;19.946;2022-08-19T18:28:47;100046.80;;;29.10
65765;BMP180;52915;53.718;19.946;2022-08-19T18:33:54;100052.20;;;29.00
65765;BMP180;52915;53.718;19.946;2022-08-19T18:38:59;100047.60;;;28.90
65765;BMP180;52915;53.718;19.946;2022-08-19T18:44:23;100044.40;;;28.80
65765;BMP180;52915;53.718;19.946;2022-08-19T18:49:46;100049.00;;;28.70
65765;BMP180;52915;53.718;19.946;2022-08-19T18:54:53;100045.00;;;28.60
65765;BMP180;52915;53.718;19.946;2022-08-19T18:59:58;100036.40;;;28.60
65765;BMP180;52915;53.718;19.946;2022-08-19T19:05:03;100037.60;;;28.60
65765;BMP180;52915;53.718;19.946;2022-08-19T19:10:09;100033.60;;;28.50
65765;BMP180;52915;53.718;19.946;2022-08-19T19:15:14;100039.60;;;28.40
65765;BMP180;52915;53.718;19.946;2022-08-19T19:20:18;100046.80;;;28.30
65765;BMP180;52915;53.718;19.946;2022-08-19T19:25:23;100049.40;;;28.10
65765;BMP180;52915;53.718;19.946;2022-08-19T19:30:48;100039.80;;;27.90
65765;BMP180;52915;53.718;19.946;2022-08-19T19:35:53;100041.60;;;27.80
65765;BMP180;52915;53.718;19.946;2022-08-19T19:40:57;100041.00;;;27.70
65765;BMP180;52915;53.718;19.946;2022-08-19T19:46:01;100036.60;;;27.60
65765;BMP180;52915;53.718;19.946;2022-08-19T19:51:09;100035.80;;;27.50
65765;BMP180;52915;53.718;19.946;2022-08-19T19:56:14;100030.80;;;27.50
65765;BMP180;52915;53.718;19.946;2022-08-19T20:01:21;100035.20;;;27.40
65765;BMP180;52915;53.718;19.946;2022-08-19T20:06:29;100034.60;;;27.40
65765;BMP180;52915;53.718;19.946;2022-08-19T20:11:52;100035.00;;;27.40
65765;BMP180;52915;53.718;19.946;2022-08-19T20:16:58;100033.00;;;27.34
65765;BMP180;52915;53.718;19.946;2022-08-19T20:22:05;100038.80;;;27.30
65765;BMP180;52915;53.718;19.946;2022-08-19T20:27:09;100045.40;;;27.30
65765;BMP180;52915;53.718;19.946;2022-08-19T20:32:14;100044.20;;;27.30
65765;BMP180;52915;53.718;19.946;2022-08-19T20:37:18;100046.20;;;27.30
65765;BMP180;52915;53.718;19.946;2022-08-19T20:42:22;100037.40;;;27.30
65765;BMP180;52915;53.718;19.946;2022-08-19T20:47:26;100039.80;;;27.22
65765;BMP180;52915;53.718;19.946;2022-08-19T20:52:34;100040.60;;;27.20
65765;BMP180;52915;53.718;19.946;2022-08-19T20:57:38;100051.20;;;27.14
65765;BMP180;52915;53.718;19.946;2022-08-19T21:02:45;100053.80;;;27.10
65765;BMP180;52915;53.718;19.946;2022-08-19T21:07:50;100055.00;;;27.06
65765;BMP180;52915;53.718;19.946;2022-08-19T21:12:54;100054.20;;;27.00
65765;BMP180;52915;53.718;19.946;2022-08-19T21:17:58;100057.00;;;27.00
65765;BMP180;52915;53.718;19.946;2022-08-19T21:23:10;100059.20;;;27.00
65765;BMP180;52915;53.718;19.946;2022-08-19T21:28:17;100054.80;;;27.00
65765;BMP180;52915;53.718;19.946;2022-08-19T21:33:38;100063.40;;;27.00
65765;BMP180;52915;53.718;19.946;2022-08-19T21:38:44;100055.00;;;27.00
65765;BMP180;52915;53.718;19.946;2022-08-19T21:43:48;100056.60;;;27.00
65765;BMP180;52915;53.718;19.946;2022-08-19T21:48:52;100048.60;;;26.96
65765;BMP180;52915;53.718;19.946;2022-08-19T21:53:57;100049.40;;;26.90
65765;BMP180;52915;53.718;19.946;2022-08-19T21:59:01;100044.00;;;26.90
65765;BMP180;52915;53.718;19.946;2022-08-19T22:04:06;100055.00;;;26.86
65765;BMP180;52915;53.718;19.946;2022-08-19T22:09:10;100060.20;;;26.80
65765;BMP180;52915;53.718;19.946;2022-08-19T22:14:14;100048.80;;;26.80
65765;BMP180;52915;53.718;19.946;2022-08-19T22:19:19;100049.80;;;26.80
65765;BMP180;52915;53.718;19.946;2022-08-19T22:24:30;100076.20;;;26.80
65765;BMP180;52915;53.718;19.946;2022-08-19T22:29:34;100080.60;;;26.72
65765;BMP180;52915;53.718;19.946;2022-08-19T22:34:39;100073.00;;;26.70
65765;BMP180;52915;53.718;19.946;2022-08-19T22:39:44;100069.20;;;26.60
65765;BMP180;52915;53.718;19.946;2022-08-19T22:44:49;100071.00;;;26.60
65765;BMP180;52915;53.718;19.946;2022-08-19T22:49:53;100055.40;;;26.50
65765;BMP180;52915;53.718;19.946;2022-08-19T22:55:05;100040.20;;;26.50
65765;BMP180;52915;53.718;19.946;2022-08-19T23:00:10;100056.00;;;26.40
65765;BMP180;52915;53.718;19.946;2022-08-19T23:05:17;100063.20;;;26.30
65765;BMP180;52915;53.718;19.946;2022-08-19T23:10:26;100057.40;;;26.30
65765;BMP180;52915;53.718;19.946;2022-08-19T23:15:32;100055.60;;;26.28
65765;BMP180;52915;53.718;19.946;2022-08-19T23:20:39;100055.00;;;26.20
65765;BMP180;52915;53.718;19.946;2022-08-19T23:25:45;100093.40;;;26.10
65765;BMP180;52915;53.718;19.946;2022-08-19T23:30:52;100106.80;;;26.00
65765;BMP180;52915;53.718;19.946;2022-08-19T23:36:10;100127.20;;;25.90
65765;BMP180;52915;53.718;19.946;2022-08-19T23:41:17;100119.00;;;25.70
65765;BMP180;52915;53.718;19.946;2022-08-19T23:46:21;100124.60;;;25.60
65765;BMP180;52915;53.718;19.946;2022-08-19T23:51:30;100123.60;;;25.40
65765;BMP180;52915;53.718;19.946;2022-08-19T23:56:34;100139.00;;;25.28
